Time;durP1;ratioP1;P1;durP2;ratioP2;P2;SDS_P1;SDS_P2;PMS_P1;PMS_P2;Temp;Humidity;BMP_temperature;BMP_pressure;BME280_temperature;BME280_humidity;BME280_pressure;Samples;Min_cycle;Max_cycle;Signal;HPM_P1;HPM_P2
2023/03/09 00:01:58;;;;;;;15.80;11.00;;;;;;;;;;5054954;28;20175;-69
2023/03/09 00:04:23;;;;;;;14.57;10.03;;;;;;;;;;5052591;28;20230;-69
2023/03/09 00:06:49;;;;;;;15.83;10.20;;;;;;;;;;5052578;28;20544;-70
2023/03/09 00:09:15;;;;;;;13.30;9.90;;;;;;;;;;5050549;28;20178;-70
2023/03/09 00:11:41;;;;;;;12.60;10.23;;;;;;;;;;5046781;28;20186;-70
2023/03/09 00:14:06;;;;;;;13.30;10.47;;;;;;;;;;5052861;28;20426;-70
2023/03/09 00:16:32;;;;;;;15.20;10.43;;;;;;;;;;5059284;28;20445;-69
2023/03/09 00:18:57;;;;;;;14.50;10.93;;;;;;;;;;5058229;28;20688;-70
2023/03/09 00:21:56;;;;;;;14.97;10.07;;;;;;;;;;5058401;28;20175;-70
2023/03/09 00:24:16;;;;;;;12.53;9.37;;;;;;;;;;5058113;28;20346;-70
2023/03/09 00:26:43;;;;;;;12.73;10.43;;;;;;;;;;5057272;28;20409;-70
2023/03/09 00:29:09;;;;;;;14.57;11.23;;;;;;;;;;5057356;28;20430;-70
2023/03/09 00:31:34;;;;;;;16.50;11.40;;;;;;;;;;5057386;28;20900;-70
2023/03/09 00:34:00;;;;;;;14.50;11.47;;;;;;;;;;5058867;28;20425;-70
2023/03/09 00:36:25;;;;;;;16.67;11.80;;;;;;;;;;5059129;28;20292;-70
2023/03/09 00:38:51;;;;;;;15.13;11.40;;;;;;;;;;5058608;28;20604;-70
2023/03/09 00:41:16;;;;;;;14.10;10.20;;;;;;;;;;5056962;28;20179;-70
2023/03/09 00:43:42;;;;;;;13.90;10.43;;;;;;;;;;5059542;28;20409;-70
2023/03/09 00:46:07;;;;;;;16.33;11.30;;;;;;;;;;5053495;28;20202;-70
2023/03/09 00:48:32;;;;;;;13.27;10.57;;;;;;;;;;5055900;28;20229;-70
2023/03/09 00:50:57;;;;;;;16.20;11.20;;;;;;;;;;5049116;28;20178;-69
2023/03/09 00:53:23;;;;;;;13.60;10.70;;;;;;;;;;5055197;28;20653;-70
2023/03/09 00:55:48;;;;;;;14.03;10.87;;;;;;;;;;5052687;28;20351;-70
2023/03/09 00:58:13;;;;;;;17.77;11.17;;;;;;;;;;5051661;28;20195;-70
2023/03/09 01:00:38;;;;;;;15.83;11.83;;;;;;;;;;5054114;28;20652;-69
2023/03/09 01:03:04;;;;;;;14.30;11.77;;;;;;;;;;5051898;28;20175;-70
2023/03/09 01:05:29;;;;;;;14.67;12.40;;;;;;;;;;5053427;28;20205;-70
2023/03/09 01:07:55;;;;;;;14.10;10.30;;;;;;;;;;5053639;28;20195;-70
2023/03/09 01:10:20;;;;;;;16.70;12.20;;;;;;;;;;5047487;28;20184;-70
2023/03/09 01:12:45;;;;;;;14.80;11.90;;;;;;;;;;5054870;28;20603;-69
2023/03/09 01:15:11;;;;;;;14.80;11.07;;;;;;;;;;5046715;28;20336;-70
2023/03/09 01:17:37;;;;;;;16.00;12.20;;;;;;;;;;5049460;28;20285;-72
2023/03/09 01:20:03;;;;;;;14.97;12.00;;;;;;;;;;5042081;28;20568;-72
2023/03/09 01:22:28;;;;;;;14.10;11.60;;;;;;;;;;5050516;28;20183;-71
2023/03/09 01:24:53;;;;;;;16.40;12.30;;;;;;;;;;5046731;28;20446;-72
2023/03/09 01:27:19;;;;;;;18.87;13.10;;;;;;;;;;5048811;28;20211;-71
2023/03/09 01:29:44;;;;;;;14.73;11.43;;;;;;;;;;5049087;28;20175;-72
2023/03/09 01:32:09;;;;;;;15.17;11.83;;;;;;;;;;5053239;28;20271;-72
2023/03/09 01:34:34;;;;;;;14.97;11.80;;;;;;;;;;5044301;28;20206;-72
2023/03/09 01:37:00;;;;;;;15.40;13.20;;;;;;;;;;5045765;28;20588;-72
2023/03/09 01:39:25;;;;;;;14.10;11.70;;;;;;;;;;5048241;28;20184;-72
2023/03/09 01:41:50;;;;;;;15.07;10.80;;;;;;;;;;5052194;28;20604;-72
2023/03/09 01:44:16;;;;;;;14.67;11.70;;;;;;;;;;5042383;28;20226;-72
2023/03/09 01:46:46;;;;;;;16.13;11.87;;;;;;;;;;5047899;28;20186;-73
2023/03/09 01:49:23;;;;;;;15.80;12.07;;;;;;;;;;5066309;28;20191;-70
2023/03/09 01:51:49;;;;;;;15.10;12.17;;;;;;;;;;5055913;28;20510;-70
2023/03/09 01:54:37;;;;;;;15.00;12.20;;;;;;;;;;5046757;28;21034;-70
2023/03/09 01:57:11;;;;;;;14.27;11.13;;;;;;;;;;5041632;28;20286;-70
2023/03/09 01:59:38;;;;;;;15.57;11.67;;;;;;;;;;5049708;28;20436;-70
2023/03/09 02:02:03;;;;;;;15.20;11.20;;;;;;;;;;5050387;28;20829;-70
2023/03/09 02:04:35;;;;;;;13.70;11.60;;;;;;;;;;5047905;28;20454;-70
2023/03/09 02:07:00;;;;;;;16.13;12.47;;;;;;;;;;5065714;28;20183;-70
2023/03/09 02:09:29;;;;;;;14.50;11.70;;;;;;;;;;5049787;28;20527;-70
2023/03/09 02:11:55;;;;;;;13.77;11.50;;;;;;;;;;5050594;28;20175;-70
2023/03/09 02:14:20;;;;;;;17.03;12.00;;;;;;;;;;5050509;28;20442;-70
2023/03/09 02:16:46;;;;;;;15.27;11.73;;;;;;;;;;5053912;28;22582;-70
2023/03/09 02:19:22;;;;;;;14.00;11.47;;;;;;;;;;5047276;28;20210;-70
2023/03/09 02:21:50;;;;;;;15.03;12.40;;;;;;;;;;5055173;28;20187;-69
2023/03/09 02:24:27;;;;;;;16.77;13.00;;;;;;;;;;5046671;28;20452;-70
2023/03/09 02:26:56;;;;;;;14.90;11.30;;;;;;;;;;5045516;28;21050;-70
2023/03/09 02:29:21;;;;;;;14.10;11.13;;;;;;;;;;5047129;28;20962;-70
2023/03/09 02:31:46;;;;;;;13.47;11.00;;;;;;;;;;5046685;28;20528;-70
2023/03/09 02:34:11;;;;;;;13.80;11.50;;;;;;;;;;5050956;28;20214;-69
2023/03/09 02:36:37;;;;;;;16.43;12.33;;;;;;;;;;5048285;28;20211;-70
2023/03/09 02:39:20;;;;;;;14.63;11.10;;;;;;;;;;5043882;28;20690;-70
2023/03/09 02:41:46;;;;;;;16.53;12.20;;;;;;;;;;5050992;28;20175;-70
2023/03/09 02:44:11;;;;;;;15.27;11.83;;;;;;;;;;5054875;28;20798;-70
2023/03/09 02:46:36;;;;;;;16.07;12.60;;;;;;;;;;5049336;28;20179;-70
2023/03/09 02:49:02;;;;;;;14.23;11.60;;;;;;;;;;5066449;28;20534;-70
2023/03/09 02:51:27;;;;;;;15.20;11.63;;;;;;;;;;5058029;28;20272;-70
2023/03/09 02:53:52;;;;;;;14.60;12.00;;;;;;;;;;5054033;28;20191;-70
2023/03/09 02:56:17;;;;;;;20.13;14.17;;;;;;;;;;5067380;28;20202;-70
2023/03/09 02:58:43;;;;;;;16.00;12.60;;;;;;;;;;5052934;28;20259;-70
2023/03/09 03:01:08;;;;;;;14.93;12.60;;;;;;;;;;5054976;28;20186;-70
2023/03/09 03:03:33;;;;;;;15.80;12.30;;;;;;;;;;5050009;28;20270;-70
2023/03/09 03:05:59;;;;;;;16.20;13.23;;;;;;;;;;5052715;28;20195;-70
2023/03/09 03:08:24;;;;;;;14.90;13.20;;;;;;;;;;5056732;28;20687;-70
2023/03/09 03:10:49;;;;;;;15.80;12.60;;;;;;;;;;5056270;28;20242;-70
2023/03/09 03:13:15;;;;;;;17.30;12.90;;;;;;;;;;5043380;28;20189;-70
2023/03/09 03:15:40;;;;;;;15.57;13.00;;;;;;;;;;5048030;28;20208;-70
2023/03/09 03:18:05;;;;;;;15.03;12.10;;;;;;;;;;5038822;28;20200;-70
2023/03/09 03:20:30;;;;;;;16.87;12.40;;;;;;;;;;5056302;28;20536;-70
2023/03/09 03:22:56;;;;;;;14.00;11.47;;;;;;;;;;5054986;28;20204;-70
2023/03/09 03:25:23;;;;;;;14.20;11.97;;;;;;;;;;5049030;28;20214;-70
2023/03/09 03:27:49;;;;;;;16.20;11.90;;;;;;;;;;5046906;28;20581;-70
2023/03/09 03:30:14;;;;;;;16.37;11.30;;;;;;;;;;5050703;28;20429;-70
2023/03/09 03:32:40;;;;;;;13.77;11.23;;;;;;;;;;5044069;28;20210;-70
2023/03/09 03:35:05;;;;;;;15.27;11.63;;;;;;;;;;5046796;28;20203;-70
2023/03/09 03:37:31;;;;;;;14.53;12.23;;;;;;;;;;5043591;28;20195;-70
2023/03/09 03:39:56;;;;;;;14.87;12.50;;;;;;;;;;5048282;28;20218;-70
2023/03/09 03:42:22;;;;;;;14.07;11.60;;;;;;;;;;5048327;28;20563;-70
2023/03/09 03:44:47;;;;;;;13.70;11.20;;;;;;;;;;5047050;28;20208;-72
2023/03/09 03:47:12;;;;;;;14.73;12.20;;;;;;;;;;5055878;28;20281;-72
2023/03/09 03:49:37;;;;;;;14.57;11.20;;;;;;;;;;5055697;28;20697;-72
2023/03/09 03:52:03;;;;;;;14.63;11.53;;;;;;;;;;5059743;28;20175;-72
2023/03/09 03:54:28;;;;;;;18.23;11.57;;;;;;;;;;5054723;28;20223;-72
2023/03/09 03:56:53;;;;;;;14.40;12.00;;;;;;;;;;5055037;28;20475;-72
2023/03/09 03:59:19;;;;;;;15.00;11.90;;;;;;;;;;5056974;28;20210;-72
2023/03/09 04:01:44;;;;;;;15.47;11.97;;;;;;;;;;5057927;28;20210;-72
2023/03/09 04:04:09;;;;;;;14.77;11.33;;;;;;;;;;5058187;28;20223;-72
2023/03/09 04:06:35;;;;;;;14.70;11.93;;;;;;;;;;5058754;28;20172;-72
2023/03/09 04:09:00;;;;;;;14.47;11.10;;;;;;;;;;5058057;28;20778;-72
2023/03/09 04:11:26;;;;;;;14.20;11.53;;;;;;;;;;5049154;28;20187;-72
2023/03/09 04:13:51;;;;;;;15.37;11.57;;;;;;;;;;5052165;28;20175;-72
2023/03/09 04:16:16;;;;;;;13.90;11.17;;;;;;;;;;5051446;28;20665;-72
2023/03/09 04:18:42;;;;;;;16.00;12.13;;;;;;;;;;5044555;28;20262;-72
2023/03/09 04:21:07;;;;;;;12.40;10.87;;;;;;;;;;5046719;28;20634;-72
2023/03/09 04:23:32;;;;;;;14.20;11.73;;;;;;;;;;5049000;28;20176;-72
2023/03/09 04:25:59;;;;;;;13.80;11.40;;;;;;;;;;5051142;28;20221;-72
2023/03/09 04:28:24;;;;;;;13.80;11.30;;;;;;;;;;5039865;28;20879;-72
2023/03/09 04:30:49;;;;;;;14.70;12.17;;;;;;;;;;5048265;28;20433;-72
2023/03/09 04:33:15;;;;;;;16.57;12.37;;;;;;;;;;5045790;28;20180;-72
2023/03/09 04:35:42;;;;;;;12.63;10.37;;;;;;;;;;5050366;28;20203;-72
2023/03/09 04:38:07;;;;;;;12.63;10.30;;;;;;;;;;5047845;28;20217;-73
2023/03/09 04:40:32;;;;;;;15.43;12.20;;;;;;;;;;5062406;28;20945;-72
2023/03/09 04:42:58;;;;;;;14.30;11.30;;;;;;;;;;5048691;28;20180;-72
2023/03/09 04:45:23;;;;;;;14.23;11.20;;;;;;;;;;5047094;28;20231;-74
2023/03/09 04:47:48;;;;;;;14.10;11.33;;;;;;;;;;5048933;28;20187;-72
2023/03/09 04:50:13;;;;;;;14.60;11.50;;;;;;;;;;5052624;28;20210;-72
2023/03/09 04:52:39;;;;;;;13.57;10.13;;;;;;;;;;5054435;28;20649;-72
2023/03/09 04:55:04;;;;;;;13.23;11.00;;;;;;;;;;5048771;28;20846;-72
2023/03/09 04:57:29;;;;;;;12.23;9.87;;;;;;;;;;5046804;28;20199;-72
2023/03/09 04:59:55;;;;;;;14.93;11.70;;;;;;;;;;5045184;28;20203;-71
2023/03/09 05:02:21;;;;;;;13.07;10.57;;;;;;;;;;5048665;28;20570;-72
2023/03/09 05:04:46;;;;;;;14.43;10.03;;;;;;;;;;5049108;28;20199;-72
2023/03/09 05:07:11;;;;;;;13.40;8.90;;;;;;;;;;5046657;28;20274;-72
2023/03/09 05:09:37;;;;;;;12.00;10.43;;;;;;;;;;5043327;28;20192;-72
2023/03/09 05:12:02;;;;;;;14.33;10.80;;;;;;;;;;5056873;28;20237;-72
2023/03/09 05:14:28;;;;;;;10.67;8.90;;;;;;;;;;5052747;28;20662;-72
2023/03/09 05:16:53;;;;;;;13.13;10.40;;;;;;;;;;5045461;28;20175;-72
2023/03/09 05:19:19;;;;;;;12.80;10.03;;;;;;;;;;5046346;28;20476;-72
2023/03/09 05:21:45;;;;;;;12.20;10.20;;;;;;;;;;5048804;28;20657;-72
2023/03/09 05:24:10;;;;;;;11.70;9.87;;;;;;;;;;5050385;28;20580;-72
2023/03/09 05:26:35;;;;;;;12.07;9.73;;;;;;;;;;5046488;28;20184;-72
2023/03/09 05:29:00;;;;;;;12.67;9.53;;;;;;;;;;5048877;28;20597;-72
2023/03/09 05:31:26;;;;;;;13.03;10.13;;;;;;;;;;5044806;28;20207;-72
2023/03/09 05:33:54;;;;;;;13.60;10.80;;;;;;;;;;5041056;28;20184;-72
2023/03/09 05:36:24;;;;;;;12.27;10.17;;;;;;;;;;5047819;28;20187;-71
2023/03/09 05:38:50;;;;;;;13.27;10.60;;;;;;;;;;5048463;28;20469;-72
2023/03/09 05:41:15;;;;;;;11.43;9.90;;;;;;;;;;5046659;28;20437;-71
2023/03/09 05:43:43;;;;;;;11.50;9.50;;;;;;;;;;5051015;28;20478;-72
2023/03/09 05:46:09;;;;;;;13.87;10.87;;;;;;;;;;5048303;28;20200;-72
2023/03/09 05:48:35;;;;;;;12.30;9.83;;;;;;;;;;5049684;28;20445;-72
2023/03/09 05:51:00;;;;;;;11.83;9.77;;;;;;;;;;5055273;28;20409;-72
2023/03/09 05:53:26;;;;;;;11.47;9.47;;;;;;;;;;5057874;28;20191;-72
2023/03/09 05:55:52;;;;;;;12.43;10.67;;;;;;;;;;5056507;28;20702;-72
2023/03/09 05:58:17;;;;;;;12.67;9.50;;;;;;;;;;5069555;28;20222;-72
2023/03/09 06:00:43;;;;;;;12.37;9.30;;;;;;;;;;5058992;28;20943;-72
2023/03/09 06:03:08;;;;;;;12.43;10.50;;;;;;;;;;5056142;28;20182;-72
2023/03/09 06:05:33;;;;;;;17.00;10.93;;;;;;;;;;5053545;28;20202;-71
2023/03/09 06:07:58;;;;;;;12.43;9.40;;;;;;;;;;5055415;28;20183;-72
2023/03/09 06:10:24;;;;;;;12.30;9.77;;;;;;;;;;5058829;28;20171;-72
2023/03/09 06:12:49;;;;;;;16.30;11.37;;;;;;;;;;5059100;28;20199;-72
2023/03/09 06:15:14;;;;;;;14.33;10.60;;;;;;;;;;5060116;28;20209;-72
2023/03/09 06:17:40;;;;;;;14.13;10.47;;;;;;;;;;5060667;28;20199;-72
2023/03/09 06:20:05;;;;;;;12.30;9.80;;;;;;;;;;5056767;28;20419;-72
2023/03/09 06:22:31;;;;;;;13.80;10.50;;;;;;;;;;5057224;28;20175;-72
2023/03/09 06:24:56;;;;;;;11.07;9.20;;;;;;;;;;5053421;28;20277;-72
2023/03/09 06:27:21;;;;;;;12.43;9.20;;;;;;;;;;5049058;28;20654;-72
2023/03/09 06:29:47;;;;;;;12.43;9.53;;;;;;;;;;5060539;28;20171;-72
2023/03/09 06:32:12;;;;;;;13.53;10.80;;;;;;;;;;5058442;28;20176;-72
2023/03/09 06:34:37;;;;;;;13.17;10.70;;;;;;;;;;5060786;28;20192;-72
2023/03/09 06:37:03;;;;;;;13.13;10.33;;;;;;;;;;5058872;28;20167;-72
2023/03/09 06:39:28;;;;;;;14.50;10.10;;;;;;;;;;5060047;28;20199;-72
2023/03/09 06:41:53;;;;;;;11.97;9.70;;;;;;;;;;5060224;28;20175;-72
2023/03/09 06:44:18;;;;;;;12.70;10.00;;;;;;;;;;5060064;28;20277;-72
2023/03/09 06:46:44;;;;;;;12.10;10.80;;;;;;;;;;5060030;28;20554;-72
2023/03/09 06:49:09;;;;;;;14.27;11.03;;;;;;;;;;5058190;28;20608;-72
2023/03/09 06:51:34;;;;;;;13.47;10.27;;;;;;;;;;5057738;28;20180;-73
2023/03/09 06:54:00;;;;;;;13.23;10.77;;;;;;;;;;5062650;28;20218;-72
2023/03/09 06:56:25;;;;;;;12.10;10.23;;;;;;;;;;5058435;28;20187;-72
2023/03/09 06:58:52;;;;;;;13.67;10.73;;;;;;;;;;5060596;28;20214;-72
2023/03/09 07:01:17;;;;;;;14.50;11.27;;;;;;;;;;5057678;28;20175;-72
2023/03/09 07:03:43;;;;;;;13.77;10.83;;;;;;;;;;5076056;28;21492;-72
2023/03/09 07:06:08;;;;;;;15.47;10.50;;;;;;;;;;5060388;28;20203;-72
2023/03/09 07:08:36;;;;;;;13.00;10.37;;;;;;;;;;5070571;28;20179;-71
2023/03/09 07:11:01;;;;;;;14.03;10.00;;;;;;;;;;5058609;28;20211;-72
2023/03/09 07:13:26;;;;;;;14.30;10.80;;;;;;;;;;5058127;28;20454;-72
2023/03/09 07:15:52;;;;;;;16.07;11.60;;;;;;;;;;5060982;28;20202;-72
2023/03/09 07:18:17;;;;;;;13.90;11.20;;;;;;;;;;5059292;28;20320;-72
2023/03/09 07:20:42;;;;;;;13.23;11.33;;;;;;;;;;5060202;28;20609;-72
2023/03/09 07:23:08;;;;;;;14.27;10.30;;;;;;;;;;5057179;28;20175;-72
2023/03/09 07:25:35;;;;;;;11.20;10.00;;;;;;;;;;5054253;28;20241;-72
2023/03/09 07:28:02;;;;;;;13.20;10.17;;;;;;;;;;5057652;28;20432;-72
2023/03/09 07:30:28;;;;;;;12.40;10.80;;;;;;;;;;5042761;28;20410;-72
2023/03/09 07:32:53;;;;;;;14.07;10.97;;;;;;;;;;5059860;28;20418;-72
2023/03/09 07:35:19;;;;;;;12.07;10.27;;;;;;;;;;5059137;28;20518;-72
2023/03/09 07:37:45;;;;;;;13.87;10.23;;;;;;;;;;5058147;28;20203;-72
2023/03/09 07:40:10;;;;;;;13.00;10.87;;;;;;;;;;5055823;28;20413;-72
2023/03/09 07:42:36;;;;;;;12.63;11.23;;;;;;;;;;5060507;28;20167;-72
2023/03/09 07:45:01;;;;;;;13.93;10.40;;;;;;;;;;5058011;28;20192;-72
2023/03/09 07:47:26;;;;;;;13.63;9.80;;;;;;;;;;5059485;28;20175;-70
2023/03/09 07:49:51;;;;;;;18.20;11.23;;;;;;;;;;5055424;28;20171;-70
2023/03/09 07:52:17;;;;;;;13.47;11.00;;;;;;;;;;5059235;28;20634;-70
2023/03/09 07:54:42;;;;;;;15.23;11.20;;;;;;;;;;5058599;28;20222;-70
2023/03/09 07:57:07;;;;;;;14.50;11.00;;;;;;;;;;5056479;28;20646;-70
2023/03/09 07:59:33;;;;;;;13.90;10.70;;;;;;;;;;5054277;28;20677;-70
2023/03/09 08:01:58;;;;;;;12.57;10.47;;;;;;;;;;5074118;28;20262;-70
2023/03/09 08:04:25;;;;;;;14.47;11.30;;;;;;;;;;5056653;28;20616;-70
2023/03/09 08:06:50;;;;;;;13.33;11.57;;;;;;;;;;5072114;28;20648;-70
2023/03/09 08:09:17;;;;;;;13.67;10.97;;;;;;;;;;5057406;28;20453;-70
2023/03/09 08:11:43;;;;;;;13.67;11.00;;;;;;;;;;5049550;28;20202;-70
2023/03/09 08:14:09;;;;;;;14.20;9.90;;;;;;;;;;5050792;28;20418;-70
2023/03/09 08:16:34;;;;;;;12.53;10.23;;;;;;;;;;5056086;28;20432;-70
2023/03/09 08:18:59;;;;;;;13.07;10.80;;;;;;;;;;5054835;28;20260;-70
2023/03/09 08:21:25;;;;;;;13.30;10.73;;;;;;;;;;5055716;28;20191;-70
2023/03/09 08:23:50;;;;;;;13.47;9.83;;;;;;;;;;5056283;28;20637;-70
2023/03/09 08:26:16;;;;;;;14.67;11.30;;;;;;;;;;5056518;28;20258;-70
2023/03/09 08:28:41;;;;;;;15.33;11.60;;;;;;;;;;5052056;28;20650;-70
2023/03/09 08:31:11;;;;;;;12.60;10.73;;;;;;;;;;5054632;28;20480;-69
2023/03/09 08:33:36;;;;;;;14.27;11.37;;;;;;;;;;5053419;28;20236;-69
2023/03/09 08:36:16;;;;;;;11.33;9.77;;;;;;;;;;5056006;28;20529;-70
2023/03/09 08:38:41;;;;;;;13.10;10.70;;;;;;;;;;5052391;28;20194;-70
2023/03/09 08:41:07;;;;;;;11.67;10.43;;;;;;;;;;5052544;28;20425;-70
2023/03/09 08:43:32;;;;;;;11.33;9.33;;;;;;;;;;5056983;28;20243;-70
2023/03/09 08:45:57;;;;;;;9.70;8.53;;;;;;;;;;5054219;28;20246;-70
2023/03/09 08:48:23;;;;;;;10.37;8.03;;;;;;;;;;5053301;28;20559;-69
2023/03/09 08:50:48;;;;;;;11.90;8.90;;;;;;;;;;5054514;28;20171;-69
2023/03/09 08:53:13;;;;;;;9.03;7.73;;;;;;;;;;5055390;28;20206;-70
2023/03/09 08:55:38;;;;;;;9.27;8.37;;;;;;;;;;5058673;28;20219;-70
2023/03/09 08:58:04;;;;;;;9.53;7.97;;;;;;;;;;5056388;28;20283;-70
2023/03/09 09:00:29;;;;;;;10.63;8.17;;;;;;;;;;5054834;28;20184;-69
2023/03/09 09:02:54;;;;;;;8.30;7.50;;;;;;;;;;5055359;28;20176;-70
2023/03/09 09:05:19;;;;;;;9.00;7.87;;;;;;;;;;5056947;28;20199;-70
2023/03/09 09:07:45;;;;;;;7.90;7.10;;;;;;;;;;5054183;28;20184;-70
2023/03/09 09:10:10;;;;;;;9.13;7.13;;;;;;;;;;5054523;28;20495;-70
2023/03/09 09:12:37;;;;;;;10.33;7.00;;;;;;;;;;5050096;28;20720;-70
2023/03/09 09:15:03;;;;;;;9.10;7.30;;;;;;;;;;5057641;28;20249;-69
2023/03/09 09:17:28;;;;;;;7.90;7.07;;;;;;;;;;5049859;28;20438;-70
2023/03/09 09:19:53;;;;;;;7.80;6.73;;;;;;;;;;5052951;28;20413;-70
2023/03/09 09:22:19;;;;;;;8.20;7.00;;;;;;;;;;5055200;28;20181;-70
2023/03/09 09:24:44;;;;;;;7.90;7.10;;;;;;;;;;5052646;28;20195;-70
2023/03/09 09:27:10;;;;;;;6.90;6.20;;;;;;;;;;5058100;28;20180;-70
2023/03/09 09:29:36;;;;;;;7.80;6.40;;;;;;;;;;5052872;28;20183;-70
2023/03/09 09:32:01;;;;;;;7.10;5.87;;;;;;;;;;5054857;28;20426;-70
2023/03/09 09:34:31;;;;;;;7.17;5.77;;;;;;;;;;5053837;28;20204;-70
2023/03/09 09:36:57;;;;;;;7.30;6.20;;;;;;;;;;5048706;28;20486;-70
2023/03/09 09:39:22;;;;;;;8.10;6.90;;;;;;;;;;5050981;28;20469;-69
2023/03/09 09:41:50;;;;;;;6.67;5.97;;;;;;;;;;5054456;28;20175;-70
2023/03/09 09:44:17;;;;;;;6.37;5.67;;;;;;;;;;5057422;28;20230;-69
2023/03/09 09:46:44;;;;;;;8.97;6.00;;;;;;;;;;5054670;28;20410;-70
2023/03/09 09:49:21;;;;;;;7.93;5.53;;;;;;;;;;5053482;28;20464;-70
2023/03/09 09:52:06;;;;;;;7.10;6.00;;;;;;;;;;5042216;28;20512;-69
2023/03/09 09:54:37;;;;;;;6.00;4.90;;;;;;;;;;5054966;28;20457;-70
2023/03/09 09:57:05;;;;;;;5.87;5.27;;;;;;;;;;5054737;28;20421;-70
2023/03/09 09:59:37;;;;;;;6.33;5.73;;;;;;;;;;5051516;28;20476;-70
2023/03/09 10:02:08;;;;;;;7.33;5.77;;;;;;;;;;5054820;28;20892;-70
2023/03/09 10:04:54;;;;;;;7.33;5.73;;;;;;;;;;5054187;28;20449;-70
2023/03/09 10:07:21;;;;;;;6.43;5.83;;;;;;;;;;5009374;28;20425;-71
2023/03/09 10:09:51;;;;;;;6.30;5.70;;;;;;;;;;5052427;28;20826;-70
2023/03/09 10:12:16;;;;;;;6.90;5.37;;;;;;;;;;5053979;28;20418;-70
2023/03/09 10:14:42;;;;;;;6.73;6.00;;;;;;;;;;5055456;28;20955;-70
2023/03/09 10:17:25;;;;;;;6.57;5.13;;;;;;;;;;5051009;28;20630;-70
2023/03/09 10:19:51;;;;;;;5.83;5.23;;;;;;;;;;5057123;28;20171;-69
2023/03/09 10:22:24;;;;;;;5.60;5.00;;;;;;;;;;5054133;28;20402;-70
2023/03/09 10:24:51;;;;;;;7.40;5.50;;;;;;;;;;5053816;28;20460;-70
2023/03/09 10:27:18;;;;;;;7.67;6.30;;;;;;;;;;5054818;28;20422;-70
2023/03/09 10:30:02;;;;;;;5.53;5.03;;;;;;;;;;5051491;28;20506;-70
2023/03/09 10:32:39;;;;;;;5.67;5.17;;;;;;;;;;5054154;28;20407;-70
2023/03/09 10:35:18;;;;;;;6.07;5.47;;;;;;;;;;5050118;28;20460;-70
2023/03/09 10:37:44;;;;;;;7.90;5.30;;;;;;;;;;5067018;28;20473;-70
2023/03/09 10:40:16;;;;;;;5.53;5.00;;;;;;;;;;5052793;28;20405;-70
2023/03/09 10:42:41;;;;;;;6.00;5.40;;;;;;;;;;5056906;28;20457;-70
2023/03/09 10:45:12;;;;;;;5.70;5.00;;;;;;;;;;5056044;28;20933;-70
2023/03/09 10:47:51;;;;;;;5.80;5.20;;;;;;;;;;5057474;28;20213;-70
2023/03/09 10:50:17;;;;;;;7.07;5.83;;;;;;;;;;5056820;28;20418;-70
2023/03/09 10:52:42;;;;;;;5.20;4.70;;;;;;;;;;5058694;28;20425;-70
2023/03/09 10:55:26;;;;;;;5.60;5.10;;;;;;;;;;5055977;28;20215;-70
2023/03/09 10:57:55;;;;;;;9.40;5.33;;;;;;;;;;5057081;28;20694;-70
2023/03/09 11:00:21;;;;;;;6.47;5.40;;;;;;;;;;5056697;28;20795;-70
2023/03/09 11:02:53;;;;;;;6.00;4.43;;;;;;;;;;5056002;28;20418;-70
2023/03/09 11:05:24;;;;;;;4.80;4.40;;;;;;;;;;5053549;28;20209;-70
2023/03/09 11:07:59;;;;;;;5.93;5.10;;;;;;;;;;5038857;28;20480;-70
2023/03/09 11:10:28;;;;;;;6.33;4.73;;;;;;;;;;5057309;28;20405;-70
2023/03/09 11:12:54;;;;;;;5.03;4.47;;;;;;;;;;5053568;28;20432;-70
2023/03/09 11:15:24;;;;;;;7.10;5.70;;;;;;;;;;5053563;28;20858;-70
2023/03/09 11:17:49;;;;;;;6.07;4.97;;;;;;;;;;5048273;28;20490;-70
2023/03/09 11:20:23;;;;;;;6.10;5.17;;;;;;;;;;5054813;28;20824;-70
2023/03/09 11:23:00;;;;;;;5.70;5.07;;;;;;;;;;5056972;28;20692;-70
2023/03/09 11:25:44;;;;;;;4.97;4.47;;;;;;;;;;5054997;28;20568;-70
2023/03/09 11:28:28;;;;;;;5.03;4.63;;;;;;;;;;5052361;28;20422;-70
2023/03/09 11:30:55;;;;;;;6.03;4.60;;;;;;;;;;5053148;28;20420;-70
2023/03/09 11:33:20;;;;;;;5.83;5.13;;;;;;;;;;5057608;28;20804;-70
2023/03/09 11:35:48;;;;;;;6.70;4.50;;;;;;;;;;5054545;28;20452;-70
2023/03/09 11:38:14;;;;;;;6.67;5.10;;;;;;;;;;5045026;28;20290;-70
2023/03/09 11:40:40;;;;;;;6.87;5.60;;;;;;;;;;5054679;28;20467;-70
2023/03/09 11:43:26;;;;;;;5.47;4.97;;;;;;;;;;5055307;28;20410;-70
2023/03/09 11:45:54;;;;;;;5.90;5.30;;;;;;;;;;5057497;28;20429;-70
2023/03/09 11:48:22;;;;;;;6.57;5.57;;;;;;;;;;5054516;28;20453;-70
2023/03/09 11:50:48;;;;;;;6.07;5.13;;;;;;;;;;5047241;28;20490;-69
2023/03/09 11:53:17;;;;;;;5.43;4.93;;;;;;;;;;5052530;28;20450;-68
2023/03/09 11:55:44;;;;;;;5.43;4.93;;;;;;;;;;5047104;28;20210;-69
2023/03/09 11:58:13;;;;;;;5.57;5.07;;;;;;;;;;5046166;28;20460;-69
2023/03/09 12:00:41;;;;;;;5.53;5.00;;;;;;;;;;5049851;28;20422;-69
2023/03/09 12:03:15;;;;;;;5.27;4.77;;;;;;;;;;5048353;28;20492;-69
2023/03/09 12:05:51;;;;;;;5.80;5.30;;;;;;;;;;5039564;28;20499;-69
2023/03/09 12:08:20;;;;;;;4.70;4.30;;;;;;;;;;5047791;28;20476;-69
2023/03/09 12:10:50;;;;;;;5.30;4.70;;;;;;;;;;5043978;28;20429;-69
2023/03/09 12:13:18;;;;;;;5.10;4.60;;;;;;;;;;5048436;28;20453;-70
2023/03/09 12:15:49;;;;;;;5.33;4.77;;;;;;;;;;5049638;28;20457;-69
2023/03/09 12:18:17;;;;;;;5.00;4.50;;;;;;;;;;5046439;28;20979;-69
2023/03/09 12:20:48;;;;;;;5.53;4.60;;;;;;;;;;5052046;28;20430;-69
2023/03/09 12:23:43;;;;;;;5.30;4.80;;;;;;;;;;5050028;28;20537;-69
2023/03/09 12:26:14;;;;;;;5.67;5.10;;;;;;;;;;5037865;28;20559;-69
2023/03/09 12:28:40;;;;;;;5.30;4.80;;;;;;;;;;5046787;28;20512;-69
2023/03/09 12:31:05;;;;;;;5.03;4.53;;;;;;;;;;5048960;28;20879;-69
2023/03/09 12:33:56;;;;;;;4.80;4.30;;;;;;;;;;5050377;28;20219;-69
2023/03/09 12:36:28;;;;;;;5.13;4.63;;;;;;;;;;5036897;28;20314;-69
2023/03/09 12:39:12;;;;;;;5.67;5.17;;;;;;;;;;5042286;28;20462;-69
2023/03/09 12:41:56;;;;;;;5.93;5.33;;;;;;;;;;5048842;28;20480;-69
2023/03/09 12:44:40;;;;;;;4.97;4.57;;;;;;;;;;5034113;28;20449;-69
2023/03/09 12:47:20;;;;;;;6.63;5.90;;;;;;;;;;5047344;28;21008;-69
2023/03/09 12:49:47;;;;;;;5.83;5.33;;;;;;;;;;5036782;28;20509;-72
2023/03/09 12:52:17;;;;;;;5.63;5.13;;;;;;;;;;5074651;22;20510;-69
2023/03/09 12:54:42;;;;;;;6.43;5.83;;;;;;;;;;5043147;28;20481;-70
2023/03/09 12:57:09;;;;;;;7.40;5.97;;;;;;;;;;5040954;28;20446;-69
2023/03/09 12:59:34;;;;;;;6.93;6.23;;;;;;;;;;5039638;28;20310;-69
2023/03/09 13:02:17;;;;;;;7.80;5.77;;;;;;;;;;5040729;28;20569;-69
2023/03/09 13:05:02;;;;;;;6.73;5.80;;;;;;;;;;5040708;28;20535;-69
2023/03/09 13:07:27;;;;;;;6.67;5.97;;;;;;;;;;5039813;28;20481;-69
2023/03/09 13:09:53;;;;;;;6.73;6.03;;;;;;;;;;5039827;28;20449;-70
2023/03/09 13:12:33;;;;;;;8.50;6.73;;;;;;;;;;5039993;28;20692;-69
2023/03/09 13:15:06;;;;;;;5.90;5.40;;;;;;;;;;5038436;28;20698;-67
2023/03/09 13:17:37;;;;;;;6.43;5.83;;;;;;;;;;5043488;28;20944;-71
2023/03/09 13:20:35;;;;;;;5.57;5.07;;;;;;;;;;5039593;28;20430;-70
2023/03/09 13:23:12;;;;;;;7.07;6.37;;;;;;;;;;5012534;28;20972;-69
2023/03/09 13:25:47;;;;;;;6.63;5.97;;;;;;;;;;5042306;28;20422;-69
2023/03/09 13:28:17;;;;;;;6.53;5.93;;;;;;;;;;5040785;28;20808;-69
2023/03/09 13:30:44;;;;;;;6.70;6.00;;;;;;;;;;5043903;28;20402;-69
2023/03/09 13:33:14;;;;;;;7.70;6.37;;;;;;;;;;5044168;28;20438;-69
2023/03/09 13:35:41;;;;;;;6.97;6.30;;;;;;;;;;5045630;28;20419;-70
2023/03/09 13:38:17;;;;;;;6.80;6.10;;;;;;;;;;5056365;28;20478;-69
2023/03/09 13:40:47;;;;;;;6.83;6.10;;;;;;;;;;5046008;28;20496;-70
2023/03/09 13:43:24;;;;;;;6.23;5.60;;;;;;;;;;5047118;28;20418;-69
2023/03/09 13:46:12;;;;;;;6.87;6.17;;;;;;;;;;5045419;28;20517;-69
2023/03/09 13:48:43;;;;;;;6.77;6.13;;;;;;;;;;5032065;28;20422;-70
2023/03/09 13:51:28;;;;;;;8.73;7.03;;;;;;;;;;5047756;28;20917;-69
2023/03/09 13:53:53;;;;;;;7.10;5.70;;;;;;;;;;5045864;28;20442;-69
2023/03/09 13:56:21;;;;;;;6.57;5.97;;;;;;;;;;5044560;28;20515;-69
2023/03/09 13:58:49;;;;;;;6.27;5.67;;;;;;;;;;5045653;28;20212;-69
2023/03/09 14:01:27;;;;;;;6.30;5.70;;;;;;;;;;5044771;28;20881;-69
2023/03/09 14:03:56;;;;;;;5.83;5.10;;;;;;;;;;5045655;28;20426;-69
2023/03/09 14:06:29;;;;;;;6.80;6.03;;;;;;;;;;5040261;28;20454;-69
2023/03/09 14:08:55;;;;;;;6.60;5.90;;;;;;;;;;5041829;28;20796;-69
2023/03/09 14:11:24;;;;;;;6.93;6.23;;;;;;;;;;5043050;28;20483;-69
2023/03/09 14:13:54;;;;;;;7.43;6.67;;;;;;;;;;5060361;28;20180;-69
2023/03/09 14:16:19;;;;;;;6.37;5.77;;;;;;;;;;5050564;28;21240;-69
2023/03/09 14:18:48;;;;;;;6.57;5.93;;;;;;;;;;5046211;28;20494;-69
2023/03/09 14:21:23;;;;;;;5.90;5.30;;;;;;;;;;5050064;28;20692;-69
2023/03/09 14:23:49;;;;;;;6.40;5.80;;;;;;;;;;5048346;28;20425;-69
2023/03/09 14:26:23;;;;;;;7.50;6.43;;;;;;;;;;5049749;28;20442;-69
2023/03/09 14:29:17;;;;;;;7.60;6.30;;;;;;;;;;5050385;28;20633;-69
2023/03/09 14:31:43;;;;;;;6.60;6.00;;;;;;;;;;5032271;28;20422;-69
2023/03/09 14:34:14;;;;;;;6.43;5.83;;;;;;;;;;5048963;28;20819;-69